createdAt,value
2018-06-17T00:01:59.941Z,6.83
2018-06-17T00:04:28.841Z,6.90
2018-06-17T00:06:57.720Z,6.17
2018-06-17T00:09:26.660Z,6.50
2018-06-17T00:11:55.601Z,6.97
2018-06-17T00:14:24.512Z,6.40
2018-06-17T00:16:53.514Z,6.77
2018-06-17T00:19:22.424Z,7.57
2018-06-17T00:21:51.322Z,6.47
2018-06-17T00:24:20.280Z,7.33
2018-06-17T00:26:48.718Z,6.60
2018-06-17T00:29:17.595Z,10.03
2018-06-17T00:31:46.488Z,8.90
2018-06-17T00:34:15.359Z,10.50
2018-06-17T00:36:44.469Z,8.77
2018-06-17T00:39:13.262Z,7.30
2018-06-17T00:41:42.155Z,6.63
2018-06-17T00:44:11.069Z,6.23
2018-06-17T00:46:39.873Z,6.97
2018-06-17T00:49:08.343Z,7.30
2018-06-17T00:51:37.200Z,7.13
2018-06-17T00:54:06.161Z,10.07
2018-06-17T00:56:35.054Z,6.93
2018-06-17T00:59:03.961Z,7.47
2018-06-17T01:01:32.795Z,7.50
2018-06-17T01:04:01.701Z,7.33
2018-06-17T01:06:30.215Z,7.33
2018-06-17T01:08:59.184Z,6.97
2018-06-17T01:11:28.026Z,6.83
2018-06-17T01:13:56.925Z,9.33
2018-06-17T01:16:25.761Z,7.17
2018-06-17T01:18:54.812Z,7.40
2018-06-17T01:21:23.665Z,6.93
2018-06-17T01:23:52.561Z,6.97
2018-06-17T01:26:21.464Z,6.70
2018-06-17T01:28:50.302Z,6.93
2018-06-17T01:31:18.766Z,7.27
2018-06-17T01:33:47.632Z,7.80
2018-06-17T01:36:16.506Z,6.03
2018-06-17T01:38:45.448Z,7.60
2018-06-17T01:41:14.306Z,10.40
2018-06-17T01:43:43.184Z,7.70
2018-06-17T01:46:12.043Z,6.40
2018-06-17T01:48:40.904Z,10.13
2018-06-17T01:51:09.740Z,6.20
2018-06-17T01:53:38.601Z,7.70
2018-06-17T01:56:07.399Z,6.70
2018-06-17T01:58:36.308Z,7.07
2018-06-17T02:01:05.158Z,6.73
2018-06-17T02:03:39.192Z,7.13
2018-06-17T02:06:13.209Z,6.07
2018-06-17T02:08:47.228Z,6.20
2018-06-17T02:12:22.153Z,7.33
2018-06-17T02:14:57.145Z,6.07
2018-06-17T02:17:26.960Z,5.87
2018-06-17T02:19:56.142Z,7.07
2018-06-17T02:22:25.252Z,6.00
2018-06-17T02:24:54.057Z,6.17
2018-06-17T02:27:22.963Z,6.20
2018-06-17T02:29:51.800Z,6.07
2018-06-17T02:32:20.784Z,6.00
2018-06-17T02:34:49.692Z,6.53
2018-06-17T02:37:18.544Z,7.10
2018-06-17T02:39:47.404Z,6.97
2018-06-17T02:42:15.843Z,6.70
2018-06-17T02:44:44.771Z,6.50
2018-06-17T02:47:18.840Z,6.57
2018-06-17T02:49:48.799Z,5.70
2018-06-17T02:52:22.873Z,6.90
2018-06-17T02:54:51.675Z,8.60
2018-06-17T02:57:20.996Z,6.73
2018-06-17T02:59:49.811Z,5.83
2018-06-17T03:02:18.764Z,6.47
2018-06-17T03:04:47.649Z,6.43
2018-06-17T03:07:17.156Z,5.83
2018-06-17T03:09:45.980Z,7.43
2018-06-17T03:12:14.811Z,7.40
2018-06-17T03:14:43.634Z,7.20
2018-06-17T03:17:12.528Z,6.00
2018-06-17T03:19:41.364Z,6.57
2018-06-17T03:22:10.276Z,8.13
2018-06-17T03:25:44.020Z,6.60
2018-06-17T03:28:18.087Z,6.00
2018-06-17T03:30:52.115Z,6.77
2018-06-17T03:33:26.171Z,6.30
2018-06-17T03:36:00.125Z,7.67
2018-06-17T03:38:29.041Z,6.80
2018-06-17T03:40:57.892Z,6.20
2018-06-17T03:43:26.764Z,6.87
2018-06-17T03:45:55.659Z,6.17
2018-06-17T03:48:24.496Z,6.60
2018-06-17T03:50:53.404Z,6.00
2018-06-17T03:53:22.219Z,6.17
2018-06-17T03:55:51.088Z,6.60
2018-06-17T03:58:19.991Z,6.63
2018-06-17T04:00:48.416Z,5.67
2018-06-17T04:03:17.328Z,6.30
2018-06-17T04:05:46.149Z,6.77
2018-06-17T04:08:14.619Z,7.57
2018-06-17T04:10:43.570Z,5.80
2018-06-17T04:13:12.512Z,9.27
2018-06-17T04:15:41.408Z,7.47
2018-06-17T04:18:10.793Z,7.47
2018-06-17T04:20:39.988Z,6.80
2018-06-17T04:23:08.872Z,10.97
2018-06-17T04:25:37.807Z,8.47
2018-06-17T04:28:06.778Z,7.37
2018-06-17T04:30:35.164Z,6.13
2018-06-17T04:33:03.627Z,6.93
2018-06-17T04:35:32.500Z,8.53
2018-06-17T04:38:01.426Z,7.30
2018-06-17T04:40:30.252Z,6.10
2018-06-17T04:42:59.161Z,6.67
2018-06-17T04:45:27.956Z,5.23
2018-06-17T04:47:56.891Z,6.33
2018-06-17T04:50:25.275Z,7.30
2018-06-17T04:52:54.260Z,7.43
2018-06-17T04:55:23.114Z,6.50
2018-06-17T04:57:52.065Z,7.17
2018-06-17T05:00:20.905Z,6.83
2018-06-17T05:02:49.713Z,7.57
2018-06-17T05:05:18.592Z,6.70
2018-06-17T05:07:47.536Z,6.97
2018-06-17T05:10:16.420Z,6.50
2018-06-17T05:12:45.392Z,6.60
2018-06-17T05:15:14.305Z,7.03
2018-06-17T05:17:43.135Z,6.53
2018-06-17T05:20:11.989Z,6.80
2018-06-17T05:22:40.840Z,8.23
2018-06-17T05:25:09.708Z,6.90
2018-06-17T05:27:38.604Z,6.77
2018-06-17T05:30:07.391Z,6.93
2018-06-17T05:32:36.283Z,6.63
2018-06-17T05:35:05.089Z,6.27
2018-06-17T05:37:33.563Z,6.10
2018-06-17T05:40:01.968Z,5.87
2018-06-17T05:42:31.857Z,6.30
2018-06-17T05:45:00.335Z,5.90
2018-06-17T05:47:29.214Z,6.37
2018-06-17T05:49:58.124Z,5.80
2018-06-17T05:52:26.547Z,6.23
2018-06-17T05:54:55.691Z,6.57
2018-06-17T05:57:24.537Z,7.30
2018-06-17T05:59:53.366Z,6.33
2018-06-17T06:02:22.180Z,7.83
2018-06-17T06:04:50.982Z,6.70
2018-06-17T06:07:19.893Z,6.23
2018-06-17T06:09:48.781Z,5.87
2018-06-17T06:12:17.684Z,7.73
2018-06-17T06:14:46.474Z,7.40
2018-06-17T06:17:15.348Z,6.87
2018-06-17T06:19:44.295Z,6.33
2018-06-17T06:22:12.755Z,6.10
2018-06-17T06:24:41.661Z,7.87
2018-06-17T06:27:10.528Z,6.83
2018-06-17T06:29:39.376Z,6.07
2018-06-17T06:32:08.243Z,6.60
2018-06-17T06:34:37.118Z,6.93
2018-06-17T06:37:05.595Z,6.03
2018-06-17T06:39:34.416Z,6.90
2018-06-17T06:42:03.320Z,6.20
2018-06-17T06:44:32.204Z,6.77
2018-06-17T06:47:01.110Z,6.53
2018-06-17T06:49:29.923Z,7.57
2018-06-17T06:51:58.845Z,7.87
2018-06-17T06:54:27.756Z,6.53
2018-06-17T06:56:56.644Z,7.43
2018-06-17T06:59:25.465Z,6.03
2018-06-17T07:02:05.445Z,5.93
2018-06-17T07:04:45.409Z,7.30
2018-06-17T07:07:25.461Z,7.77
2018-06-17T07:10:05.045Z,8.90
2018-06-17T07:12:33.854Z,6.10
2018-06-17T07:15:02.741Z,8.40
2018-06-17T07:17:42.817Z,5.60
2018-06-17T07:20:11.749Z,5.73
2018-06-17T07:22:40.596Z,5.73
2018-06-17T07:25:13.160Z,7.43
2018-06-17T07:28:54.788Z,7.00
2018-06-17T07:31:23.723Z,6.70
2018-06-17T07:33:52.564Z,5.77
2018-06-17T07:36:21.501Z,6.73
2018-06-17T07:38:50.321Z,5.50
2018-06-17T07:41:19.232Z,5.90
2018-06-17T07:43:48.111Z,7.47
2018-06-17T07:46:17.008Z,6.13
2018-06-17T07:49:54.207Z,5.20
2018-06-17T07:52:35.368Z,5.23
2018-06-17T07:55:04.385Z,4.57
2018-06-17T07:57:34.409Z,5.37
2018-06-17T08:00:03.304Z,3.53
2018-06-17T08:02:32.193Z,5.63
2018-06-17T08:05:01.124Z,5.87
2018-06-17T08:07:29.945Z,4.20
2018-06-17T08:09:58.868Z,4.10
2018-06-17T08:12:27.698Z,6.00
2018-06-17T08:14:56.633Z,4.77
2018-06-17T08:17:25.448Z,4.40
2018-06-17T08:19:54.375Z,4.27
2018-06-17T08:22:23.252Z,4.77
2018-06-17T08:24:52.076Z,6.33
2018-06-17T08:27:20.960Z,6.77
2018-06-17T08:29:49.876Z,4.80
2018-06-17T08:32:18.771Z,4.10
2018-06-17T08:34:47.178Z,5.13
2018-06-17T08:37:16.153Z,5.30
2018-06-17T08:39:44.704Z,4.07
2018-06-17T08:42:13.632Z,3.93
2018-06-17T08:44:42.564Z,3.40
2018-06-17T08:47:11.469Z,4.03
2018-06-17T08:49:40.354Z,3.97
2018-06-17T08:52:09.236Z,4.00
2018-06-17T08:54:38.116Z,6.47
2018-06-17T08:57:07.016Z,4.40
2018-06-17T08:59:36.004Z,4.53
2018-06-17T09:02:04.880Z,3.57
2018-06-17T09:04:33.800Z,5.23
2018-06-17T09:07:02.683Z,4.97
2018-06-17T09:09:32.668Z,4.20
2018-06-17T09:12:01.989Z,3.97
2018-06-17T09:14:30.917Z,3.30
2018-06-17T09:16:59.791Z,4.37
2018-06-17T09:19:28.699Z,3.83
2018-06-17T09:21:57.564Z,8.08
2018-06-17T09:24:26.479Z,6.28
2018-06-17T09:26:55.356Z,12.25
2018-06-17T09:29:24.268Z,14.15
2018-06-17T09:31:53.172Z,6.60
2018-06-17T09:34:22.024Z,5.37
2018-06-17T09:36:50.911Z,4.85
2018-06-17T09:39:19.806Z,5.55
2018-06-17T09:41:48.696Z,5.37
2018-06-17T09:44:17.599Z,4.90
2018-06-17T09:46:46.614Z,5.65
2018-06-17T09:49:15.110Z,4.20
2018-06-17T09:51:43.981Z,5.17
2018-06-17T09:54:12.944Z,5.90
2018-06-17T09:56:41.400Z,4.42
2018-06-17T09:59:10.313Z,4.25
2018-06-17T10:01:39.235Z,4.67
2018-06-17T10:04:07.732Z,5.67
2018-06-17T10:06:36.746Z,4.17
2018-06-17T10:09:08.672Z,6.70
2018-06-17T10:11:37.704Z,3.30
2018-06-17T10:14:06.711Z,5.65
2018-06-17T10:16:35.648Z,4.08
2018-06-17T10:19:04.593Z,3.87
2018-06-17T10:21:33.382Z,6.05
2018-06-17T10:24:02.316Z,3.98
2018-06-17T10:26:31.207Z,4.65
2018-06-17T10:29:00.128Z,5.85
2018-06-17T10:31:29.016Z,6.17
2018-06-17T10:33:57.443Z,4.80
2018-06-17T10:36:26.399Z,4.00
2018-06-17T10:38:55.362Z,4.62
2018-06-17T10:41:24.750Z,4.92
2018-06-17T10:43:53.615Z,4.45
2018-06-17T10:46:22.676Z,4.45
2018-06-17T10:48:51.763Z,5.55
2018-06-17T10:51:20.800Z,4.15
2018-06-17T10:53:50.440Z,4.87
2018-06-17T10:56:19.424Z,5.37
2018-06-17T10:58:48.515Z,4.45
2018-06-17T11:01:17.603Z,6.55
2018-06-17T11:03:46.515Z,4.97
2018-06-17T11:06:15.440Z,6.05
2018-06-17T11:08:44.411Z,4.30
2018-06-17T11:11:12.892Z,6.62
2018-06-17T11:13:42.072Z,5.50
2018-06-17T11:16:11.149Z,4.83
2018-06-17T11:18:40.547Z,4.20
2018-06-17T11:21:09.485Z,3.95
2018-06-17T11:23:38.296Z,4.10
2018-06-17T11:26:07.248Z,4.37
2018-06-17T11:28:36.170Z,5.22
2018-06-17T11:31:05.050Z,5.22
2018-06-17T11:33:33.902Z,4.42
2018-06-17T11:36:02.785Z,4.47
2018-06-17T11:38:32.535Z,4.85
2018-06-17T11:41:00.968Z,4.40
2018-06-17T11:43:29.912Z,5.97
2018-06-17T11:45:58.802Z,4.15
2018-06-17T11:48:27.259Z,5.35
2018-06-17T11:50:56.261Z,4.25
2018-06-17T11:53:25.260Z,4.25
2018-06-17T11:55:54.067Z,4.53
2018-06-17T11:58:23.012Z,4.25
2018-06-17T12:00:51.872Z,3.90
2018-06-17T12:03:21.113Z,5.50
2018-06-17T12:05:50.802Z,5.65
2018-06-17T12:08:19.660Z,5.30
2018-06-17T12:10:48.640Z,5.37
2018-06-17T12:13:17.520Z,5.70
2018-06-17T12:15:46.440Z,4.17
2018-06-17T12:18:16.067Z,4.55
2018-06-17T12:20:45.996Z,5.30
2018-06-17T12:23:14.488Z,4.12
2018-06-17T12:25:43.384Z,4.00
2018-06-17T12:28:12.317Z,5.00
2018-06-17T12:30:40.779Z,4.92
2018-06-17T12:33:09.820Z,4.55
2018-06-17T12:35:38.684Z,4.30
2018-06-17T12:38:08.574Z,5.08
2018-06-17T12:40:37.504Z,4.00
2018-06-17T12:43:06.371Z,5.08
2018-06-17T12:45:35.254Z,7.72
2018-06-17T12:48:04.109Z,4.15
2018-06-17T12:50:33.137Z,4.08
2018-06-17T12:53:01.603Z,4.35
2018-06-17T12:55:30.096Z,4.75
2018-06-17T12:57:58.937Z,4.28
2018-06-17T13:00:27.871Z,4.42
2018-06-17T13:02:56.753Z,3.15
2018-06-17T13:05:25.727Z,4.20
2018-06-17T13:07:54.648Z,4.47
2018-06-17T13:10:23.068Z,5.00
2018-06-17T13:12:51.994Z,4.00
2018-06-17T13:15:20.897Z,3.75
2018-06-17T13:17:49.837Z,4.05
2018-06-17T13:20:18.740Z,6.42
2018-06-17T13:22:47.604Z,4.17
2018-06-17T13:25:16.543Z,4.47
2018-06-17T13:27:45.417Z,4.30
2018-06-17T13:30:14.344Z,4.37
2018-06-17T13:32:43.168Z,4.37
2018-06-17T13:35:12.144Z,5.53
2018-06-17T13:37:41.177Z,4.40
2018-06-17T13:40:10.065Z,5.40
2018-06-17T13:42:38.993Z,4.22
2018-06-17T13:45:07.896Z,4.58
2018-06-17T13:47:36.434Z,4.60
2018-06-17T13:50:05.821Z,5.17
2018-06-17T13:52:34.689Z,4.37
2018-06-17T13:55:03.695Z,5.62
2018-06-17T13:57:32.629Z,4.30
2018-06-17T14:00:01.629Z,7.65
2018-06-17T14:02:30.548Z,4.08
2018-06-17T14:04:59.036Z,5.67
2018-06-17T14:07:27.507Z,4.35
2018-06-17T14:09:55.990Z,4.50
2018-06-17T14:12:24.456Z,6.40
2018-06-17T14:14:53.453Z,8.43
2018-06-17T14:17:22.369Z,7.40
2018-06-17T14:19:51.191Z,5.97
2018-06-17T14:22:20.108Z,5.72
2018-06-17T14:24:48.996Z,4.72
2018-06-17T14:27:17.935Z,6.60
2018-06-17T14:29:46.808Z,4.95
2018-06-17T14:32:15.340Z,5.53
2018-06-17T14:34:44.188Z,4.65
2018-06-17T14:37:13.124Z,5.28
2018-06-17T14:39:42.212Z,4.22
2018-06-17T14:42:16.332Z,6.37
2018-06-17T14:44:50.381Z,5.45
2018-06-17T14:47:24.564Z,5.58
2018-06-17T14:49:58.716Z,5.47
2018-06-17T14:52:36.611Z,4.47
2018-06-17T14:55:05.761Z,4.60
2018-06-17T14:57:34.750Z,4.75
2018-06-17T15:00:03.889Z,4.70
2018-06-17T15:02:33.034Z,5.42
2018-06-17T15:05:02.180Z,6.20
2018-06-17T15:07:31.121Z,4.42
2018-06-17T15:10:00.170Z,5.37
2018-06-17T15:12:30.493Z,5.00
2018-06-17T15:14:59.501Z,5.97
2018-06-17T15:17:28.470Z,5.10
2018-06-17T15:19:57.408Z,4.97
2018-06-17T15:22:26.535Z,5.08
2018-06-17T15:24:55.660Z,4.92
2018-06-17T15:27:24.545Z,5.42
2018-06-17T15:29:53.560Z,6.12
2018-06-17T15:32:27.861Z,4.92
2018-06-17T15:35:02.081Z,6.40
2018-06-17T15:37:36.297Z,5.70
2018-06-17T15:40:06.325Z,4.85
2018-06-17T15:42:35.525Z,5.03
2018-06-17T15:45:04.480Z,7.60
2018-06-17T15:47:34.130Z,5.05
2018-06-17T15:50:03.208Z,5.80
2018-06-17T15:52:32.335Z,6.53
2018-06-17T15:55:01.765Z,5.65
2018-06-17T15:57:30.803Z,5.58
2018-06-17T15:59:59.352Z,4.92
2018-06-17T16:02:28.661Z,5.20
2018-06-17T16:04:57.962Z,6.75
2018-06-17T16:07:26.890Z,4.95
2018-06-17T16:09:55.473Z,5.00
2018-06-17T16:12:29.889Z,6.22
2018-06-17T16:15:04.454Z,6.25
2018-06-17T16:19:42.011Z,6.15
2018-06-17T16:22:11.101Z,6.35
2018-06-17T16:25:04.613Z,5.83
2018-06-17T16:27:43.597Z,6.17
2018-06-17T16:30:27.664Z,6.25
2018-06-17T16:32:56.640Z,6.58
2018-06-17T16:35:25.639Z,6.37
2018-06-17T16:37:54.325Z,5.80
2018-06-17T16:40:22.811Z,8.37
2018-06-17T16:42:51.372Z,6.27
2018-06-17T16:45:20.259Z,5.90
2018-06-17T16:47:49.209Z,6.37
2018-06-17T16:50:18.150Z,6.23
2018-06-17T16:52:52.525Z,6.50
2018-06-17T16:55:26.700Z,6.50
2018-06-17T16:58:00.756Z,6.33
2018-06-17T17:00:29.879Z,5.83
2018-06-17T17:02:58.861Z,6.58
2018-06-17T17:05:27.854Z,6.57
2018-06-17T17:07:56.826Z,7.40
2018-06-17T17:10:26.022Z,6.67
2018-06-17T17:12:54.976Z,6.35
2018-06-17T17:15:23.540Z,6.40
2018-06-17T17:17:52.527Z,6.70
2018-06-17T17:20:21.487Z,5.80
2018-06-17T17:22:50.434Z,7.13
2018-06-17T17:25:19.387Z,8.03
2018-06-17T17:27:49.375Z,6.17
2018-06-17T17:30:18.578Z,7.53
2018-06-17T17:32:52.620Z,8.60
2018-06-17T17:35:26.897Z,6.80
2018-06-17T17:38:01.035Z,9.73
2018-06-17T17:40:35.257Z,8.60
2018-06-17T17:43:04.337Z,7.60
2018-06-17T17:45:35.726Z,6.83
2018-06-17T17:48:05.061Z,6.97
2018-06-17T17:50:34.029Z,9.13
2018-06-17T17:53:03.253Z,6.83
2018-06-17T17:55:32.320Z,8.27
2018-06-17T17:58:01.228Z,7.83
2018-06-17T18:00:29.748Z,9.07
2018-06-17T18:02:58.832Z,7.37
2018-06-17T18:05:28.041Z,8.37
2018-06-17T18:07:57.130Z,8.73
2018-06-17T18:10:26.179Z,8.13
2018-06-17T18:12:55.121Z,6.20
2018-06-17T18:15:24.131Z,7.27
2018-06-17T18:17:53.134Z,6.97
2018-06-17T18:20:22.054Z,6.50
2018-06-17T18:22:51.195Z,6.50
2018-06-17T18:25:25.325Z,6.83
2018-06-17T18:30:04.907Z,6.27
2018-06-17T18:32:39.145Z,7.23
2018-06-17T18:35:13.453Z,7.63
2018-06-17T18:37:41.923Z,8.50
2018-06-17T18:40:10.971Z,7.43
2018-06-17T18:42:39.921Z,9.30
2018-06-17T18:45:08.896Z,7.47
2018-06-17T18:47:38.305Z,7.73
2018-06-17T18:50:08.137Z,9.20
2018-06-17T18:52:37.194Z,9.40
2018-06-17T18:55:06.516Z,7.80
2018-06-17T18:57:35.452Z,8.20
2018-06-17T19:00:04.915Z,7.87
2018-06-17T19:02:33.780Z,8.57
2018-06-17T19:05:02.772Z,7.60
2018-06-17T19:07:31.743Z,7.60
2018-06-17T19:10:05.925Z,7.33
2018-06-17T19:13:43.777Z,8.10
2018-06-17T19:16:19.267Z,7.47
2018-06-17T19:18:48.228Z,7.50
2018-06-17T19:21:17.313Z,7.20
2018-06-17T19:23:46.280Z,8.63
2018-06-17T19:26:15.892Z,8.07
2018-06-17T19:28:44.808Z,8.80
2018-06-17T19:31:13.749Z,8.80
2018-06-17T19:33:42.684Z,8.53
2018-06-17T19:36:11.912Z,9.93
2018-06-17T19:38:40.923Z,30.30
2018-06-17T19:41:11.877Z,31.43
2018-06-17T19:43:40.916Z,17.23
2018-06-17T19:46:10.055Z,9.57
2018-06-17T19:48:38.612Z,10.70
2018-06-17T19:51:12.740Z,8.60
2018-06-17T19:53:46.853Z,8.57
2018-06-17T19:56:20.853Z,9.43
2018-06-17T19:58:55.910Z,7.83
2018-06-17T20:01:25.105Z,8.60
2018-06-17T20:03:54.089Z,8.67
2018-06-17T20:06:23.068Z,9.73
2018-06-17T20:08:51.638Z,9.10
2018-06-17T20:11:20.611Z,8.13
2018-06-17T20:13:49.626Z,9.57
2018-06-17T20:16:18.694Z,7.23
2018-06-17T20:18:47.818Z,7.57
2018-06-17T20:21:17.142Z,8.23
2018-06-17T20:23:47.155Z,9.03
2018-06-17T20:26:16.476Z,8.10
2018-06-17T20:28:45.759Z,11.00
2018-06-17T20:31:15.148Z,7.73
2018-06-17T20:33:49.487Z,9.97
2018-06-17T20:36:24.262Z,7.97
2018-06-17T20:38:58.856Z,10.30
2018-06-17T20:41:33.295Z,7.80
2018-06-17T20:44:02.441Z,8.00
2018-06-17T20:46:31.317Z,7.57
2018-06-17T20:49:00.305Z,7.97
2018-06-17T20:51:29.205Z,8.40
2018-06-17T20:53:58.080Z,10.00
2018-06-17T20:56:26.959Z,8.50
2018-06-17T20:58:55.924Z,8.50
2018-06-17T21:01:24.888Z,9.17
2018-06-17T21:03:54.451Z,10.27
2018-06-17T21:06:23.509Z,8.27
2018-06-17T21:08:52.514Z,7.97
2018-06-17T21:11:21.444Z,9.13
2018-06-17T21:13:50.348Z,9.97
2018-06-17T21:16:19.254Z,9.07
2018-06-17T21:18:53.489Z,7.90
2018-06-17T21:21:27.271Z,8.10
2018-06-17T21:24:01.362Z,8.27
2018-06-17T21:26:35.392Z,8.80
2018-06-17T21:29:04.234Z,7.53
2018-06-17T21:31:33.152Z,7.27
2018-06-17T21:34:02.014Z,8.60
2018-06-17T21:36:30.984Z,9.07
2018-06-17T21:38:59.808Z,7.60
2018-06-17T21:41:28.952Z,7.20
2018-06-17T21:43:57.765Z,8.07
2018-06-17T21:46:26.676Z,7.30
2018-06-17T21:48:55.541Z,7.47
2018-06-17T21:51:23.982Z,8.07
2018-06-17T21:53:52.836Z,7.67
2018-06-17T21:56:21.832Z,6.90
2018-06-17T21:58:50.781Z,7.43
2018-06-17T22:01:19.966Z,8.30
2018-06-17T22:03:48.805Z,9.63
2018-06-17T22:06:17.777Z,7.53
2018-06-17T22:08:51.808Z,8.47
2018-06-17T22:11:25.950Z,8.27
2018-06-17T22:15:02.813Z,7.03
2018-06-17T22:17:36.888Z,7.03
2018-06-17T22:20:05.749Z,7.43
2018-06-17T22:22:34.183Z,8.87
2018-06-17T22:25:03.061Z,7.33
2018-06-17T22:27:31.897Z,7.43
2018-06-17T22:30:00.820Z,7.23
2018-06-17T22:32:29.683Z,7.63
2018-06-17T22:34:58.581Z,7.43
2018-06-17T22:37:27.471Z,7.03
2018-06-17T22:39:56.425Z,7.63
2018-06-17T22:42:25.326Z,9.17
2018-06-17T22:44:54.229Z,6.73
2018-06-17T22:47:28.444Z,7.57
2018-06-17T22:49:57.328Z,7.13
2018-06-17T22:52:26.345Z,8.07
2018-06-17T22:54:55.520Z,7.43
2018-06-17T22:57:30.660Z,7.60
2018-06-17T23:00:04.711Z,9.73
2018-06-17T23:02:38.944Z,6.80
2018-06-17T23:05:12.920Z,6.80
2018-06-17T23:07:46.863Z,8.23
2018-06-17T23:10:15.724Z,8.93
2018-06-17T23:12:44.653Z,8.00
2018-06-17T23:15:13.597Z,8.43
2018-06-17T23:17:42.412Z,7.00
2018-06-17T23:20:10.966Z,7.53
2018-06-17T23:22:39.865Z,7.20
2018-06-17T23:25:08.751Z,9.17
2018-06-17T23:27:37.577Z,7.23
2018-06-17T23:30:06.093Z,6.90
2018-06-17T23:32:34.953Z,7.93
2018-06-17T23:35:03.972Z,7.57
2018-06-17T23:37:32.832Z,7.40
2018-06-17T23:40:01.713Z,6.60
2018-06-17T23:42:30.585Z,7.10
2018-06-17T23:44:59.453Z,7.73
2018-06-17T23:47:33.584Z,7.57
2018-06-17T23:50:07.581Z,7.97
2018-06-17T23:52:41.550Z,8.83
2018-06-17T23:55:15.632Z,7.57
2018-06-17T23:57:44.501Z,8.10
